Time;durP1;ratioP1;P1;durP2;ratioP2;P2;SDS_P1;SDS_P2;PMS_P1;PMS_P2;Temp;Humidity;BMP_temperature;BMP_pressure;BME280_temperature;BME280_humidity;BME280_pressure;Samples;Min_cycle;Max_cycle;Signal;HPM_P1;HPM_P2
2021/08/16 00:00:26;;;;;;;0.50;0.30;;;18.40;99.90;;;;;;5019077;28;20472;-85
2021/08/16 00:02:53;;;;;;;0.60;0.60;;;18.40;99.90;;;;;;5018988;28;20468;-85
2021/08/16 00:05:20;;;;;;;0.50;0.30;;;18.30;99.90;;;;;;5018208;28;20449;-86
2021/08/16 00:07:47;;;;;;;0.50;0.30;;;18.30;99.90;;;;;;5018712;28;20477;-85
2021/08/16 00:10:16;;;;;;;0.63;0.50;;;18.30;99.90;;;;;;5017699;28;21045;-84
2021/08/16 00:12:43;;;;;;;0.50;0.40;;;18.30;99.90;;;;;;5018767;28;20470;-84
2021/08/16 00:15:12;;;;;;;2.50;1.33;;;18.20;99.90;;;;;;5017902;28;20441;-84
2021/08/16 00:17:39;;;;;;;0.50;0.40;;;18.20;99.90;;;;;;5017929;28;20449;-82
2021/08/16 00:20:07;;;;;;;0.50;0.40;;;18.10;99.90;;;;;;5017266;28;21008;-83
2021/08/16 00:22:34;;;;;;;0.70;0.50;;;18.10;99.90;;;;;;5017864;28;20469;-84
2021/08/16 00:25:01;;;;;;;0.50;0.30;;;18.00;99.90;;;;;;5017668;28;20440;-85
2021/08/16 00:27:29;;;;;;;1.13;0.93;;;18.00;99.90;;;;;;5018334;28;20447;-84
2021/08/16 00:29:55;;;;;;;0.53;0.50;;;18.00;99.90;;;;;;5017893;28;20965;-84
2021/08/16 00:32:23;;;;;;;0.60;0.50;;;17.90;99.90;;;;;;5016931;28;20473;-85
2021/08/16 00:34:50;;;;;;;0.50;0.40;;;17.80;99.90;;;;;;5018398;28;20946;-86
2021/08/16 00:37:17;;;;;;;2.83;0.47;;;17.80;99.90;;;;;;5018295;28;20443;-84
2021/08/16 00:39:44;;;;;;;1.07;1.07;;;17.80;99.90;;;;;;5018069;28;20845;-85
2021/08/16 00:42:12;;;;;;;0.90;0.80;;;17.70;99.90;;;;;;5017557;28;20459;-85
2021/08/16 00:44:40;;;;;;;0.60;0.40;;;17.60;99.90;;;;;;5017977;28;20455;-85
2021/08/16 00:47:07;;;;;;;0.50;0.40;;;17.50;99.90;;;;;;5017936;28;20474;-84
2021/08/16 00:49:35;;;;;;;3.27;1.23;;;17.50;99.90;;;;;;5018635;28;20439;-86
2021/08/16 00:52:03;;;;;;;0.50;0.40;;;17.40;99.90;;;;;;5017070;28;20478;-84
2021/08/16 00:54:29;;;;;;;0.50;0.33;;;17.40;99.90;;;;;;5017409;28;20450;-85
2021/08/16 00:56:57;;;;;;;0.50;0.40;;;17.30;99.90;;;;;;5016703;28;21018;-84
2021/08/16 00:59:24;;;;;;;0.50;0.40;;;17.20;99.90;;;;;;5017495;28;20455;-84
2021/08/16 01:01:51;;;;;;;1.00;0.57;;;17.10;99.90;;;;;;5016637;28;20802;-85
2021/08/16 01:04:18;;;;;;;1.13;0.90;;;17.10;99.90;;;;;;5017575;28;20443;-84
2021/08/16 01:06:47;;;;;;;0.50;0.40;;;17.00;99.90;;;;;;5017720;28;20453;-85
2021/08/16 01:09:13;;;;;;;0.50;0.40;;;16.90;99.90;;;;;;5017813;28;20439;-84
2021/08/16 01:11:40;;;;;;;7.70;0.93;;;16.90;99.90;;;;;;5017207;28;20527;-83
2021/08/16 01:14:07;;;;;;;1.10;1.10;;;16.90;99.90;;;;;;5017416;28;20979;-85
2021/08/16 01:16:34;;;;;;;0.50;0.33;;;16.80;99.90;;;;;;5016329;28;20952;-85
2021/08/16 01:19:01;;;;;;;0.50;0.30;;;16.80;99.90;;;;;;5017852;28;20453;-85
2021/08/16 01:21:28;;;;;;;0.50;0.40;;;16.80;99.90;;;;;;5016548;28;20478;-85
2021/08/16 01:23:56;;;;;;;0.50;0.40;;;16.70;99.90;;;;;;5017612;28;20471;-85
2021/08/16 01:26:23;;;;;;;0.50;0.40;;;16.80;99.90;;;;;;5017788;28;20449;-86
2021/08/16 01:28:51;;;;;;;0.50;0.40;;;16.80;99.90;;;;;;5017545;28;20439;-85
2021/08/16 01:31:18;;;;;;;0.50;0.40;;;16.90;99.90;;;;;;5017748;28;20446;-84
2021/08/16 01:33:45;;;;;;;0.50;0.40;;;16.90;99.90;;;;;;5017220;28;20471;-83
2021/08/16 01:36:12;;;;;;;0.50;0.30;;;16.80;99.90;;;;;;5017205;28;20467;-86
2021/08/16 01:38:42;;;;;;;0.50;0.40;;;16.90;99.90;;;;;;5016843;28;20439;-84
2021/08/16 01:41:09;;;;;;;0.70;0.60;;;16.90;99.90;;;;;;5017308;28;20503;-84
2021/08/16 01:43:36;;;;;;;1.67;0.80;;;16.90;99.90;;;;;;5017307;28;20465;-85
2021/08/16 01:46:04;;;;;;;0.50;0.40;;;16.90;99.90;;;;;;5016785;28;20443;-85
2021/08/16 01:48:31;;;;;;;0.50;0.30;;;17.00;99.90;;;;;;5017784;28;20448;-85
2021/08/16 01:50:58;;;;;;;2.63;0.60;;;17.00;99.90;;;;;;5017325;28;20477;-83
2021/08/16 01:53:25;;;;;;;2.20;1.50;;;17.00;99.90;;;;;;5017048;28;20980;-85
2021/08/16 01:55:52;;;;;;;0.50;0.30;;;17.00;99.90;;;;;;5016903;28;20450;-83
2021/08/16 01:58:18;;;;;;;0.50;0.40;;;16.90;99.90;;;;;;5016882;28;20445;-83
2021/08/16 02:00:45;;;;;;;1.13;0.87;;;16.90;99.90;;;;;;5017030;28;20486;-84
2021/08/16 02:03:13;;;;;;;0.50;0.30;;;16.90;99.90;;;;;;5016982;28;20466;-85
2021/08/16 02:05:41;;;;;;;0.50;0.40;;;17.00;99.90;;;;;;5017261;28;20443;-84
2021/08/16 02:08:07;;;;;;;0.57;0.37;;;17.00;99.90;;;;;;5017112;28;20458;-85
2021/08/16 02:10:34;;;;;;;0.50;0.40;;;17.00;99.90;;;;;;5020130;28;20432;-80
2021/08/16 02:13:01;;;;;;;0.50;0.40;;;17.00;99.90;;;;;;5020632;28;20480;-85
2021/08/16 02:15:28;;;;;;;10.43;1.60;;;17.10;99.90;;;;;;5020364;28;20439;-85
2021/08/16 02:17:55;;;;;;;1.13;0.50;;;17.10;99.90;;;;;;5020994;28;20447;-84
2021/08/16 02:20:23;;;;;;;0.70;0.60;;;17.10;99.90;;;;;;5020995;28;20487;-84
2021/08/16 02:22:50;;;;;;;0.50;0.50;;;17.10;99.90;;;;;;5020212;28;20459;-85
2021/08/16 02:25:17;;;;;;;0.50;0.30;;;17.00;99.90;;;;;;5020141;28;20450;-83
2021/08/16 02:27:45;;;;;;;0.77;0.67;;;17.00;99.90;;;;;;5019984;28;20446;-84
2021/08/16 02:30:14;;;;;;;1.53;1.43;;;17.00;99.90;;;;;;5019375;28;20447;-83
2021/08/16 02:32:41;;;;;;;0.50;0.30;;;17.00;99.90;;;;;;5019995;28;20474;-84
2021/08/16 02:35:08;;;;;;;0.50;0.40;;;17.00;99.90;;;;;;5020191;28;20447;-85
2021/08/16 02:37:37;;;;;;;1.13;0.83;;;17.00;99.90;;;;;;5019519;28;20459;-86
2021/08/16 02:40:04;;;;;;;0.77;0.77;;;17.00;99.90;;;;;;5019662;28;20443;-84
2021/08/16 02:42:31;;;;;;;0.60;0.60;;;16.90;99.90;;;;;;5019227;28;20485;-83
2021/08/16 02:44:58;;;;;;;1.17;0.63;;;16.90;99.90;;;;;;5019537;28;20447;-87
2021/08/16 02:47:25;;;;;;;0.77;0.77;;;16.90;99.90;;;;;;5019776;28;20431;-84
2021/08/16 02:49:52;;;;;;;1.03;0.80;;;16.90;99.90;;;;;;5019202;28;20435;-83
2021/08/16 02:52:19;;;;;;;0.90;0.90;;;16.80;99.90;;;;;;5019146;28;20465;-84
2021/08/16 02:54:47;;;;;;;5.43;2.93;;;16.80;99.90;;;;;;5019263;28;20807;-84
2021/08/16 02:57:14;;;;;;;2.30;1.00;;;16.80;99.90;;;;;;5019534;28;20447;-83
2021/08/16 02:59:41;;;;;;;0.50;0.30;;;16.80;99.90;;;;;;5019663;28;20455;-84
2021/08/16 03:02:08;;;;;;;3.50;1.90;;;16.80;99.90;;;;;;5019542;28;20865;-83
2021/08/16 03:04:35;;;;;;;0.50;0.40;;;16.80;99.90;;;;;;5019591;28;20450;-83
2021/08/16 03:07:02;;;;;;;1.27;1.03;;;16.80;99.90;;;;;;5019898;28;20526;-84
2021/08/16 03:09:29;;;;;;;0.70;0.60;;;16.80;99.90;;;;;;5019854;28;20456;-83
2021/08/16 03:11:57;;;;;;;1.50;1.40;;;16.80;99.90;;;;;;5018552;28;20469;-86
2021/08/16 03:14:25;;;;;;;0.50;0.40;;;16.80;99.90;;;;;;5019371;28;20439;-84
2021/08/16 03:16:51;;;;;;;0.90;0.70;;;16.80;99.90;;;;;;5018721;28;20805;-83
2021/08/16 03:19:18;;;;;;;2.53;1.60;;;16.80;99.90;;;;;;5018567;28;20937;-84
2021/08/16 03:21:45;;;;;;;3.33;2.10;;;16.70;99.90;;;;;;5017780;28;20483;-83
2021/08/16 03:24:11;;;;;;;6.00;1.43;;;16.70;99.90;;;;;;5017908;28;20440;-83
2021/08/16 03:26:38;;;;;;;0.60;0.53;;;16.70;99.90;;;;;;5017971;28;20452;-81
2021/08/16 03:29:06;;;;;;;18.40;2.00;;;16.60;99.90;;;;;;5018474;28;20450;-83
2021/08/16 03:31:33;;;;;;;1.93;0.60;;;16.70;99.90;;;;;;5017222;28;20445;-83
2021/08/16 03:34:00;;;;;;;1.10;0.60;;;16.70;99.90;;;;;;5017394;28;20439;-85
2021/08/16 03:36:27;;;;;;;0.80;0.80;;;16.70;99.90;;;;;;5018157;28;20447;-82
2021/08/16 03:38:53;;;;;;;0.57;0.40;;;16.60;99.90;;;;;;5018074;28;20451;-86
2021/08/16 03:41:20;;;;;;;3.80;1.60;;;16.60;99.90;;;;;;5017279;28;20474;-84
2021/08/16 03:43:47;;;;;;;0.50;0.30;;;16.60;99.90;;;;;;5017830;28;20467;-84
2021/08/16 03:46:15;;;;;;;2.33;0.50;;;16.60;99.90;;;;;;5017475;28;20448;-86
2021/08/16 03:48:42;;;;;;;13.53;1.27;;;16.60;99.90;;;;;;5017560;28;20447;-84
2021/08/16 03:51:09;;;;;;;0.50;0.30;;;16.60;99.90;;;;;;5017104;28;20432;-84
2021/08/16 03:53:36;;;;;;;1.00;0.70;;;16.60;99.90;;;;;;5028956;28;20445;-85
2021/08/16 03:56:02;;;;;;;0.97;0.87;;;16.60;99.90;;;;;;5021651;28;20840;-85
2021/08/16 03:58:29;;;;;;;0.50;0.40;;;16.60;99.90;;;;;;5019668;28;20466;-85
2021/08/16 04:00:56;;;;;;;0.50;0.40;;;16.50;99.90;;;;;;5018850;28;20471;-85
2021/08/16 04:03:24;;;;;;;0.60;0.50;;;16.50;99.90;;;;;;5018319;28;20491;-87
2021/08/16 04:05:51;;;;;;;0.50;0.40;;;16.50;99.90;;;;;;5017763;28;20443;-83
2021/08/16 04:08:18;;;;;;;3.70;1.67;;;16.50;99.90;;;;;;5015571;28;20450;-83
2021/08/16 04:10:44;;;;;;;0.60;0.50;;;16.50;99.90;;;;;;5015549;28;20526;-80
2021/08/16 04:13:11;;;;;;;0.70;0.50;;;16.50;99.90;;;;;;5015795;28;20482;-83
2021/08/16 04:15:38;;;;;;;0.80;0.77;;;16.50;99.90;;;;;;5015701;28;20443;-81
2021/08/16 04:18:05;;;;;;;1.10;1.00;;;16.40;99.90;;;;;;5016254;28;20445;-83
2021/08/16 04:20:35;;;;;;;0.50;0.40;;;16.40;99.90;;;;;;5016225;28;20442;-83
2021/08/16 04:23:02;;;;;;;1.97;1.57;;;16.40;99.90;;;;;;5015739;28;20999;-81
2021/08/16 04:25:29;;;;;;;1.17;0.97;;;16.40;99.90;;;;;;5015446;28;20446;-83
2021/08/16 04:27:55;;;;;;;1.37;1.27;;;16.40;99.90;;;;;;5015708;28;20444;-81
2021/08/16 04:30:22;;;;;;;4.53;3.60;;;16.40;99.90;;;;;;5015229;28;20447;-81
2021/08/16 04:32:49;;;;;;;0.50;0.40;;;16.40;99.90;;;;;;5014505;28;20469;-83
2021/08/16 04:35:16;;;;;;;0.60;0.57;;;16.40;99.90;;;;;;5016144;28;20458;-82
2021/08/16 04:37:44;;;;;;;0.80;0.77;;;16.40;99.90;;;;;;5016580;28;20442;-83
2021/08/16 04:40:12;;;;;;;1.63;1.53;;;16.40;99.90;;;;;;5016017;28;20454;-82
2021/08/16 04:42:39;;;;;;;0.50;0.50;;;16.40;99.90;;;;;;5016367;28;20493;-82
2021/08/16 04:45:07;;;;;;;0.67;0.67;;;16.50;99.90;;;;;;5015812;28;20444;-84
2021/08/16 04:47:34;;;;;;;0.60;0.57;;;16.40;99.90;;;;;;5015442;28;20820;-82
2021/08/16 04:50:01;;;;;;;2.40;2.30;;;16.50;99.90;;;;;;5016407;28;20436;-83
2021/08/16 04:52:28;;;;;;;0.50;0.50;;;16.40;99.90;;;;;;5015858;28;20468;-81
2021/08/16 04:54:56;;;;;;;0.80;0.80;;;16.40;99.90;;;;;;5015433;28;20439;-83
2021/08/16 04:57:34;;;;;;;2.40;1.47;;;16.40;99.90;;;;;;5016219;28;20450;-84
2021/08/16 05:00:02;;;;;;;1.57;1.47;;;16.50;99.90;;;;;;5015791;28;20443;-84
2021/08/16 05:02:29;;;;;;;0.50;0.40;;;16.50;99.90;;;;;;5016374;28;20502;-85
2021/08/16 05:04:58;;;;;;;0.70;0.70;;;16.50;99.90;;;;;;5016687;28;20449;-84
2021/08/16 05:07:25;;;;;;;0.50;0.43;;;16.50;99.90;;;;;;5017342;28;20443;-85
2021/08/16 05:09:52;;;;;;;1.23;1.23;;;16.50;99.90;;;;;;5015911;28;20443;-85
2021/08/16 05:12:21;;;;;;;0.50;0.40;;;16.50;99.90;;;;;;5017315;28;20459;-84
2021/08/16 05:14:47;;;;;;;1.90;1.80;;;16.50;99.90;;;;;;5015415;28;20446;-82
2021/08/16 05:17:14;;;;;;;0.53;0.40;;;16.50;99.90;;;;;;5016320;28;20439;-84
2021/08/16 05:19:41;;;;;;;1.00;0.70;;;16.50;99.90;;;;;;5016265;28;20451;-83
2021/08/16 05:22:08;;;;;;;2.57;1.20;;;16.50;99.90;;;;;;5015604;28;21100;-84
2021/08/16 05:24:36;;;;;;;0.60;0.50;;;16.50;99.90;;;;;;5016275;28;20445;-82
2021/08/16 05:27:03;;;;;;;1.23;1.17;;;16.50;99.90;;;;;;5016363;28;20443;-83
2021/08/16 05:29:32;;;;;;;0.50;0.40;;;16.50;99.90;;;;;;5016486;28;21118;-83
2021/08/16 05:31:59;;;;;;;0.50;0.30;;;16.60;99.90;;;;;;5015607;28;20467;-86
2021/08/16 05:34:26;;;;;;;0.63;0.63;;;16.60;99.90;;;;;;5016530;28;20424;-84
2021/08/16 05:37:08;;;;;;;0.50;0.40;;;16.60;99.90;;;;;;5016138;28;20447;-84
2021/08/16 05:39:34;;;;;;;4.30;1.23;;;16.60;99.90;;;;;;5018311;28;20522;-81
2021/08/16 05:42:02;;;;;;;1.73;1.63;;;16.70;99.90;;;;;;5015290;28;20867;-84
2021/08/16 05:44:29;;;;;;;6.73;1.37;;;16.50;99.90;;;;;;5019205;28;20458;-84
2021/08/16 05:46:57;;;;;;;0.90;0.90;;;16.50;99.90;;;;;;5020037;28;20450;-81
2021/08/16 05:49:23;;;;;;;0.70;0.70;;;16.50;99.90;;;;;;5020067;28;20443;-82
2021/08/16 05:51:50;;;;;;;0.70;0.70;;;16.50;99.90;;;;;;5086101;22;21758;-84
2021/08/16 05:54:17;;;;;;;1.90;1.63;;;16.60;99.90;;;;;;5046463;28;20463;-85
2021/08/16 05:56:44;;;;;;;0.50;0.40;;;16.60;99.90;;;;;;5049548;28;20442;-86
2021/08/16 05:59:11;;;;;;;27.13;1.67;;;16.60;99.90;;;;;;5060092;28;20445;-86
2021/08/16 06:01:39;;;;;;;1.33;1.23;;;16.60;99.90;;;;;;5058983;28;20472;-86
2021/08/16 06:04:08;;;;;;;0.90;0.90;;;16.60;99.90;;;;;;5059419;28;20513;-86
2021/08/16 06:06:35;;;;;;;0.50;0.40;;;16.60;99.90;;;;;;5059917;28;20449;-85
2021/08/16 06:09:02;;;;;;;0.60;0.40;;;16.60;99.90;;;;;;5059053;28;20441;-86
2021/08/16 06:11:29;;;;;;;0.63;0.63;;;16.70;99.90;;;;;;5059438;28;20464;-86
2021/08/16 06:13:56;;;;;;;2.23;0.77;;;16.80;99.90;;;;;;5060781;28;20456;-86
2021/08/16 06:16:23;;;;;;;11.93;2.00;;;16.80;99.90;;;;;;5059701;28;20452;-89
2021/08/16 06:18:51;;;;;;;1.57;1.47;;;16.80;99.90;;;;;;5060120;28;20667;-87
2021/08/16 06:21:19;;;;;;;2.17;2.07;;;16.80;99.90;;;;;;5059328;28;20503;-86
2021/08/16 06:23:46;;;;;;;1.13;1.03;;;16.80;99.90;;;;;;5060042;28;20461;-87
2021/08/16 06:26:13;;;;;;;0.60;0.60;;;16.80;99.90;;;;;;5058998;28;20440;-87
2021/08/16 06:28:40;;;;;;;2.80;1.80;;;16.90;99.90;;;;;;5060470;28;20463;-87
2021/08/16 06:31:07;;;;;;;2.30;0.70;;;16.90;99.90;;;;;;5059867;28;20456;-86
2021/08/16 06:33:37;;;;;;;0.87;0.87;;;17.00;99.90;;;;;;5060351;28;20487;-87
2021/08/16 06:36:04;;;;;;;1.40;1.03;;;17.10;99.90;;;;;;5060558;28;20442;-87
2021/08/16 06:38:33;;;;;;;0.50;0.40;;;17.10;99.90;;;;;;5059373;28;20453;-87
2021/08/16 06:41:01;;;;;;;13.70;2.40;;;17.10;99.90;;;;;;5058792;28;20438;-88
2021/08/16 06:43:28;;;;;;;1.73;1.37;;;17.50;99.90;;;;;;5060373;28;20488;-85
2021/08/16 06:45:55;;;;;;;10.30;2.50;;;18.20;99.90;;;;;;5059958;28;20438;-87
2021/08/16 06:48:22;;;;;;;0.73;0.73;;;19.00;99.90;;;;;;5060309;28;20442;-87
2021/08/16 06:50:49;;;;;;;0.50;0.30;;;19.80;99.90;;;;;;5058742;28;20448;-87
2021/08/16 06:53:16;;;;;;;6.83;1.43;;;20.70;99.90;;;;;;5058152;28;20458;-87
2021/08/16 06:55:45;;;;;;;1.43;0.80;;;21.70;99.90;;;;;;5058187;28;20956;-86
2021/08/16 06:58:12;;;;;;;0.87;0.53;;;22.10;99.90;;;;;;5058791;28;20813;-85
2021/08/16 07:00:40;;;;;;;1.03;1.03;;;22.20;99.90;;;;;;5058498;28;20440;-87
2021/08/16 07:03:07;;;;;;;1.60;1.50;;;22.10;99.90;;;;;;5057755;28;21006;-88
2021/08/16 07:05:34;;;;;;;0.50;0.40;;;21.40;99.90;;;;;;5059166;28;20445;-87
2021/08/16 07:08:01;;;;;;;12.40;1.70;;;20.90;99.90;;;;;;5058803;28;20444;-87
2021/08/16 07:10:28;;;;;;;0.73;0.73;;;20.60;99.90;;;;;;5059914;28;20443;-86
2021/08/16 07:12:56;;;;;;;3.70;1.47;;;20.10;99.90;;;;;;5060859;28;20455;-87
2021/08/16 07:15:23;;;;;;;3.50;1.57;;;19.50;99.90;;;;;;5060181;28;20910;-86
2021/08/16 07:17:50;;;;;;;4.53;2.10;;;19.00;99.90;;;;;;5060546;28;20446;-86
2021/08/16 07:20:16;;;;;;;2.93;2.83;;;18.90;99.90;;;;;;5060672;28;20454;-84
2021/08/16 07:22:43;;;;;;;0.50;0.40;;;18.90;99.90;;;;;;5060443;28;20481;-85
2021/08/16 07:25:11;;;;;;;2.30;0.93;;;19.10;99.90;;;;;;5060264;28;20528;-87
2021/08/16 07:27:37;;;;;;;0.63;0.63;;;19.00;99.90;;;;;;5060735;28;20444;-86
2021/08/16 07:30:07;;;;;;;3.63;1.10;;;19.10;99.90;;;;;;5060403;28;20438;-84
2021/08/16 07:32:34;;;;;;;0.93;0.90;;;19.10;99.90;;;;;;5060507;28;21010;-86
2021/08/16 07:35:00;;;;;;;0.50;0.37;;;18.90;99.90;;;;;;5061764;28;20437;-86
2021/08/16 07:37:27;;;;;;;0.50;0.40;;;18.70;99.90;;;;;;5063044;28;20435;-86
2021/08/16 07:39:54;;;;;;;13.20;1.17;;;18.80;99.90;;;;;;5063103;28;20439;-86
2021/08/16 07:42:23;;;;;;;0.50;0.40;;;19.40;99.90;;;;;;5060809;28;20486;-87
2021/08/16 07:44:51;;;;;;;4.20;1.00;;;19.60;99.90;;;;;;5061130;28;20508;-87
2021/08/16 07:47:19;;;;;;;0.67;0.57;;;19.60;99.90;;;;;;5062397;28;20527;-87
2021/08/16 07:49:46;;;;;;;0.50;0.40;;;19.20;99.90;;;;;;5062668;28;20953;-88
2021/08/16 07:52:12;;;;;;;0.60;0.40;;;19.00;99.90;;;;;;5061438;28;20457;-87
2021/08/16 07:54:39;;;;;;;1.20;1.10;;;18.80;99.90;;;;;;5061166;28;20962;-88
2021/08/16 07:57:06;;;;;;;1.00;0.90;;;18.70;99.90;;;;;;5061420;28;20962;-87
2021/08/16 07:59:32;;;;;;;1.57;0.60;;;18.40;99.90;;;;;;5061535;28;20438;-87
2021/08/16 08:02:01;;;;;;;2.60;1.43;;;18.40;99.90;;;;;;5061406;28;20463;-86
2021/08/16 08:04:29;;;;;;;0.80;0.70;;;18.20;99.90;;;;;;5061492;28;20446;-85
2021/08/16 08:06:55;;;;;;;1.03;0.90;;;18.10;99.90;;;;;;5060603;28;20455;-87
2021/08/16 08:09:22;;;;;;;2.47;1.73;;;18.10;99.90;;;;;;5060315;28;20966;-87
2021/08/16 08:11:49;;;;;;;1.63;0.40;;;18.10;99.90;;;;;;5060161;28;20468;-88
2021/08/16 08:14:16;;;;;;;1.60;1.50;;;18.30;99.90;;;;;;5059842;28;20438;-86
2021/08/16 08:16:43;;;;;;;0.60;0.60;;;18.60;99.90;;;;;;5060015;28;20466;-84
2021/08/16 08:19:09;;;;;;;4.43;2.10;;;18.80;99.90;;;;;;5058544;28;20443;-87
2021/08/16 08:21:37;;;;;;;0.50;0.30;;;18.90;99.90;;;;;;5064256;28;20504;-86
2021/08/16 08:24:05;;;;;;;4.23;1.30;;;19.20;99.90;;;;;;5076023;28;20476;-83
2021/08/16 08:26:32;;;;;;;1.77;1.30;;;19.20;99.90;;;;;;5073485;28;20449;-86
2021/08/16 08:28:59;;;;;;;0.50;0.40;;;19.10;99.90;;;;;;5075776;28;20456;-86
2021/08/16 08:31:26;;;;;;;0.60;0.50;;;19.10;99.90;;;;;;5069325;28;20447;-85
2021/08/16 08:33:53;;;;;;;0.70;0.57;;;19.10;99.90;;;;;;5057054;28;20857;-83
2021/08/16 08:36:21;;;;;;;4.00;1.57;;;19.00;99.90;;;;;;5057052;28;20443;-87
2021/08/16 08:38:49;;;;;;;0.50;0.30;;;18.80;99.90;;;;;;5057020;28;20443;-87
2021/08/16 08:41:18;;;;;;;1.10;0.87;;;18.80;99.90;;;;;;5056062;28;20958;-86
2021/08/16 08:43:45;;;;;;;2.07;1.87;;;18.80;99.90;;;;;;5056436;28;20482;-86
2021/08/16 08:46:14;;;;;;;4.00;1.07;;;18.70;99.90;;;;;;5057953;28;20815;-87
2021/08/16 08:48:41;;;;;;;0.50;0.30;;;18.50;99.90;;;;;;5056816;28;20441;-87
2021/08/16 08:51:08;;;;;;;5.43;1.67;;;18.50;99.90;;;;;;5056058;28;20462;-86
2021/08/16 08:53:34;;;;;;;18.97;2.40;;;18.40;99.90;;;;;;5056291;28;20470;-87
2021/08/16 08:56:05;;;;;;;0.60;0.60;;;18.30;99.90;;;;;;5056975;28;20823;-85
2021/08/16 08:58:31;;;;;;;1.37;1.27;;;18.20;99.90;;;;;;5057775;28;20446;-87
2021/08/16 09:00:59;;;;;;;0.73;0.67;;;18.20;99.90;;;;;;5054553;28;20962;-87
2021/08/16 09:03:25;;;;;;;2.40;1.23;;;18.20;99.90;;;;;;5056017;28;20486;-86
2021/08/16 09:05:53;;;;;;;0.70;0.70;;;18.20;99.90;;;;;;5055863;28;20433;-87
2021/08/16 09:08:28;;;;;;;1.33;1.23;;;18.20;99.90;;;;;;5055827;28;20447;-87
2021/08/16 09:11:07;;;;;;;1.20;1.10;;;18.20;99.90;;;;;;5056199;28;20516;-87
2021/08/16 09:13:35;;;;;;;2.17;1.03;;;18.20;99.90;;;;;;5055923;28;20455;-86
2021/08/16 09:16:09;;;;;;;1.07;1.07;;;18.20;99.90;;;;;;5055904;28;20951;-87
2021/08/16 09:18:36;;;;;;;0.60;0.60;;;18.30;99.90;;;;;;5055487;28;20445;-87
2021/08/16 09:21:03;;;;;;;1.17;1.07;;;18.30;99.90;;;;;;5056488;28;20434;-87
2021/08/16 09:23:40;;;;;;;0.60;0.60;;;18.30;99.90;;;;;;5056491;28;20508;-87
2021/08/16 09:26:10;;;;;;;0.50;0.30;;;18.50;99.90;;;;;;5055978;28;20473;-87
2021/08/16 09:28:37;;;;;;;0.60;0.57;;;18.60;99.90;;;;;;5056498;28;20446;-87
2021/08/16 09:31:12;;;;;;;0.50;0.40;;;18.70;99.90;;;;;;5054640;28;20450;-87
2021/08/16 09:33:38;;;;;;;0.50;0.30;;;18.80;99.90;;;;;;5055850;28;20459;-87
2021/08/16 09:36:05;;;;;;;3.30;1.67;;;18.90;99.90;;;;;;5055773;28;20440;-88
2021/08/16 09:38:36;;;;;;;10.53;3.13;;;19.00;99.90;;;;;;5057440;28;20836;-84
2021/08/16 09:41:04;;;;;;;0.70;0.50;;;18.90;99.90;;;;;;5055551;28;20437;-85
2021/08/16 09:43:33;;;;;;;0.50;0.40;;;18.90;99.90;;;;;;5055953;28;20479;-87
2021/08/16 09:46:02;;;;;;;0.87;0.60;;;18.80;99.90;;;;;;5056196;28;20816;-87
2021/08/16 09:48:29;;;;;;;1.50;1.50;;;18.80;99.90;;;;;;5056667;28;20447;-88
2021/08/16 09:50:56;;;;;;;0.97;0.87;;;18.40;99.90;;;;;;5054150;28;20935;-87
2021/08/16 09:53:26;;;;;;;1.37;0.60;;;18.20;99.90;;;;;;5054488;28;20512;-87
2021/08/16 09:55:57;;;;;;;0.50;0.30;;;18.00;99.90;;;;;;5055641;28;20442;-88
2021/08/16 09:58:24;;;;;;;0.50;0.30;;;17.80;99.90;;;;;;5055411;28;20430;-88
2021/08/16 10:00:53;;;;;;;2.20;1.90;;;17.70;99.90;;;;;;5054083;28;20441;-87
2021/08/16 10:03:20;;;;;;;0.90;0.70;;;17.50;99.90;;;;;;5053837;28;20488;-88
2021/08/16 10:05:49;;;;;;;3.10;1.33;;;17.40;99.90;;;;;;5054771;28;21008;-88
2021/08/16 10:08:23;;;;;;;0.80;0.80;;;17.30;99.90;;;;;;5053508;28;21021;-87
2021/08/16 10:10:53;;;;;;;0.70;0.70;;;17.20;99.90;;;;;;5056091;28;20422;-89
2021/08/16 10:13:21;;;;;;;0.50;0.30;;;17.10;99.90;;;;;;5058298;28;20828;-88
2021/08/16 10:15:54;;;;;;;0.50;0.40;;;17.10;99.90;;;;;;5056456;28;20533;-87
2021/08/16 10:18:24;;;;;;;0.80;0.80;;;17.00;99.90;;;;;;5054510;28;20525;-87
2021/08/16 10:20:51;;;;;;;1.20;1.00;;;16.90;99.90;;;;;;5053510;28;20437;-86
2021/08/16 10:23:19;;;;;;;0.50;0.40;;;16.90;99.90;;;;;;5053063;28;20481;-85
2021/08/16 10:25:47;;;;;;;0.50;0.30;;;16.80;99.90;;;;;;5053993;28;20532;-87
2021/08/16 10:28:24;;;;;;;1.40;1.30;;;16.80;99.90;;;;;;5054852;28;20516;-85
2021/08/16 10:30:51;;;;;;;0.50;0.30;;;16.70;99.90;;;;;;5056590;28;20437;-87
2021/08/16 10:33:19;;;;;;;0.60;0.43;;;16.50;99.90;;;;;;5057778;28;20593;-85
2021/08/16 10:35:47;;;;;;;0.50;0.30;;;16.60;99.90;;;;;;5058004;28;20440;-85
2021/08/16 10:38:16;;;;;;;1.03;0.60;;;16.60;99.90;;;;;;5057511;28;20449;-85
2021/08/16 10:40:45;;;;;;;0.50;0.30;;;16.70;99.90;;;;;;5058420;28;20559;-86
2021/08/16 10:43:13;;;;;;;1.47;1.00;;;16.90;99.90;;;;;;5060153;28;21037;-87
2021/08/16 10:45:45;;;;;;;0.63;0.40;;;16.90;99.90;;;;;;5057757;28;20450;-85
2021/08/16 10:48:23;;;;;;;0.50;0.30;;;16.90;99.90;;;;;;5058148;28;20446;-85
2021/08/16 10:51:02;;;;;;;0.50;0.40;;;16.90;99.90;;;;;;5058141;28;20437;-85
2021/08/16 10:53:29;;;;;;;1.20;1.20;;;16.90;99.90;;;;;;5059179;28;20507;-83
2021/08/16 10:55:56;;;;;;;2.10;0.90;;;16.80;99.90;;;;;;5027177;28;20558;-85
2021/08/16 10:58:24;;;;;;;0.50;0.30;;;16.80;99.90;;;;;;5031883;28;20446;-83
2021/08/16 11:00:51;;;;;;;0.50;0.40;;;16.80;99.90;;;;;;5030796;28;20514;-84
2021/08/16 11:03:24;;;;;;;0.50;0.40;;;17.00;99.90;;;;;;5016943;28;20494;-83
2021/08/16 11:05:51;;;;;;;0.50;0.30;;;17.10;99.90;;;;;;5017314;28;20439;-84
2021/08/16 11:08:17;;;;;;;1.03;1.00;;;17.10;99.90;;;;;;5016252;28;20455;-85
2021/08/16 11:10:48;;;;;;;0.50;0.30;;;17.10;99.90;;;;;;5016890;28;20455;-84
2021/08/16 11:13:17;;;;;;;0.50;0.40;;;17.00;99.90;;;;;;5018260;28;20456;-84
2021/08/16 11:15:44;;;;;;;1.20;1.10;;;17.10;99.90;;;;;;5018142;28;20440;-84
2021/08/16 11:18:12;;;;;;;0.50;0.30;;;17.10;99.90;;;;;;5017842;28;20451;-86
2021/08/16 11:20:40;;;;;;;0.83;0.83;;;17.00;99.90;;;;;;5016638;28;20450;-87
2021/08/16 11:23:07;;;;;;;0.80;0.80;;;17.00;99.90;;;;;;5016440;28;20489;-85
2021/08/16 11:25:34;;;;;;;0.50;0.40;;;16.80;99.90;;;;;;5017275;28;20447;-85
2021/08/16 11:28:02;;;;;;;0.50;0.40;;;16.70;99.90;;;;;;5017291;28;20455;-85
2021/08/16 11:30:30;;;;;;;0.57;0.57;;;16.70;99.90;;;;;;5017774;28;20443;-86
2021/08/16 11:32:58;;;;;;;0.50;0.30;;;16.60;99.90;;;;;;5018656;28;20518;-85
2021/08/16 11:35:26;;;;;;;1.10;0.83;;;16.60;99.90;;;;;;5018166;28;20443;-86
2021/08/16 11:37:54;;;;;;;0.50;0.40;;;16.60;99.90;;;;;;5018225;28;20450;-86
2021/08/16 11:40:22;;;;;;;0.60;0.40;;;16.50;99.90;;;;;;5018670;28;20453;-85
2021/08/16 11:42:48;;;;;;;0.50;0.40;;;16.50;99.90;;;;;;5018261;28;20881;-83
2021/08/16 11:45:18;;;;;;;0.50;0.30;;;16.50;99.90;;;;;;5017564;28;20570;-86
2021/08/16 11:47:47;;;;;;;0.50;0.43;;;16.40;99.90;;;;;;5018499;28;20442;-86
2021/08/16 11:50:17;;;;;;;0.50;0.30;;;16.50;99.90;;;;;;5018026;28;20841;-82
2021/08/16 11:52:44;;;;;;;0.50;0.30;;;16.50;99.90;;;;;;5017185;28;20494;-84
2021/08/16 11:55:13;;;;;;;0.50;0.40;;;16.60;99.90;;;;;;5016723;28;20455;-85
2021/08/16 11:57:40;;;;;;;1.40;1.13;;;16.60;99.90;;;;;;5018066;28;20449;-86
2021/08/16 12:00:09;;;;;;;0.50;0.30;;;16.50;99.90;;;;;;5016337;28;20797;-82
2021/08/16 12:02:39;;;;;;;0.50;0.40;;;16.20;99.90;;;;;;5017637;28;21297;-86
2021/08/16 12:05:08;;;;;;;0.50;0.30;;;15.80;99.90;;;;;;5017429;28;20479;-85
2021/08/16 12:07:35;;;;;;;1.33;1.13;;;15.70;99.90;;;;;;5018825;28;21048;-85
2021/08/16 12:10:02;;;;;;;1.73;1.20;;;15.60;99.90;;;;;;5017450;28;20445;-84
2021/08/16 12:12:31;;;;;;;1.53;1.47;;;15.50;99.90;;;;;;5017353;28;20470;-85
2021/08/16 12:15:02;;;;;;;1.17;1.07;;;15.60;99.90;;;;;;5017403;28;20807;-84
2021/08/16 12:17:29;;;;;;;0.60;0.50;;;15.50;99.90;;;;;;5017815;28;20817;-83
2021/08/16 12:20:04;;;;;;;1.70;1.17;;;15.50;99.90;;;;;;5016233;28;20455;-85
2021/08/16 12:22:31;;;;;;;0.67;0.67;;;15.60;99.90;;;;;;5015933;28;20539;-84
2021/08/16 12:25:04;;;;;;;0.63;0.60;;;15.60;99.90;;;;;;5016164;28;20475;-85
2021/08/16 12:27:32;;;;;;;1.83;1.73;;;15.60;99.90;;;;;;5018035;28;20821;-86
2021/08/16 12:29:59;;;;;;;0.50;0.30;;;15.60;99.90;;;;;;5017213;28;20474;-85
2021/08/16 12:32:29;;;;;;;0.50;0.30;;;15.70;99.90;;;;;;5015433;28;20464;-83
2021/08/16 12:34:58;;;;;;;0.87;0.60;;;15.80;99.90;;;;;;5016576;28;20456;-86
2021/08/16 12:37:27;;;;;;;0.50;0.40;;;15.90;99.90;;;;;;5017591;28;20443;-83
2021/08/16 12:40:05;;;;;;;0.50;0.30;;;16.00;99.90;;;;;;5016221;28;20535;-86
2021/08/16 12:42:33;;;;;;;0.50;0.30;;;16.10;99.90;;;;;;5016675;28;20537;-86
2021/08/16 12:45:01;;;;;;;0.50;0.30;;;16.20;99.90;;;;;;5016190;28;20483;-86
2021/08/16 12:47:32;;;;;;;0.50;0.30;;;16.30;99.90;;;;;;5016321;28;20439;-85